sensor_id;sensor_type;location;lat;lon;timestamp;pressure;altitude;pressure_sealevel;temperature;humidity
7930;BME280;4010;42.698;23.124;2024-02-26T00:02:21;118349.16;;;-140.64;100.00
7930;BME280;4010;42.698;23.124;2024-02-26T00:04:48;118349.16;;;-140.64;100.00
7930;BME280;4010;42.698;23.124;2024-02-26T00:07:15;118349.16;;;-140.64;100.00
7930;BME280;4010;42.698;23.124;2024-02-26T00:09:42;118349.16;;;-140.64;100.00
7930;BME280;4010;42.698;23.124;2024-02-26T00:12:09;118349.16;;;-140.64;100.00
7930;BME280;4010;42.698;23.124;2024-02-26T00:14:35;118349.16;;;-140.64;100.00
7930;BME280;4010;42.698;23.124;2024-02-26T00:17:02;118349.16;;;-140.64;100.00
7930;BME280;4010;42.698;23.124;2024-02-26T00:19:30;118349.16;;;-140.64;100.00
7930;BME280;4010;42.698;23.124;2024-02-26T00:21:57;118349.16;;;-140.64;100.00
7930;BME280;4010;42.698;23.124;2024-02-26T00:24:24;118349.16;;;-140.64;100.00
7930;BME280;4010;42.698;23.124;2024-02-26T00:26:51;118349.16;;;-140.64;100.00
7930;BME280;4010;42.698;23.124;2024-02-26T00:29:20;118349.16;;;-140.64;100.00
7930;BME280;4010;42.698;23.124;2024-02-26T00:31:47;118349.16;;;-140.64;100.00
7930;BME280;4010;42.698;23.124;2024-02-26T00:34:13;118349.16;;;-140.64;100.00
7930;BME280;4010;42.698;23.124;2024-02-26T00:36:41;118349.16;;;-140.64;100.00
7930;BME280;4010;42.698;23.124;2024-02-26T00:39:08;118349.16;;;-140.64;100.00
7930;BME280;4010;42.698;23.124;2024-02-26T00:41:38;118349.16;;;-140.64;100.00
7930;BME280;4010;42.698;23.124;2024-02-26T00:44:05;118349.16;;;-140.64;100.00
7930;BME280;4010;42.698;23.124;2024-02-26T00:46:32;118349.16;;;-140.64;100.00
7930;BME280;4010;42.698;23.124;2024-02-26T00:48:58;118349.16;;;-140.64;100.00
7930;BME280;4010;42.698;23.124;2024-02-26T00:51:25;118349.16;;;-140.64;100.00
7930;BME280;4010;42.698;23.124;2024-02-26T00:53:53;118349.16;;;-140.64;100.00
7930;BME280;4010;42.698;23.124;2024-02-26T00:56:21;118349.16;;;-140.64;100.00
7930;BME280;4010;42.698;23.124;2024-02-26T00:58:48;118349.16;;;-140.64;100.00
7930;BME280;4010;42.698;23.124;2024-02-26T01:01:14;118349.16;;;-140.64;100.00
7930;BME280;4010;42.698;23.124;2024-02-26T01:03:41;118349.16;;;-140.64;100.00
7930;BME280;4010;42.698;23.124;2024-02-26T01:06:08;118349.16;;;-140.64;100.00
7930;BME280;4010;42.698;23.124;2024-02-26T01:08:35;118349.16;;;-140.64;100.00
7930;BME280;4010;42.698;23.124;2024-02-26T01:11:04;118349.16;;;-140.64;100.00
7930;BME280;4010;42.698;23.124;2024-02-26T01:13:31;118349.16;;;-140.64;100.00
7930;BME280;4010;42.698;23.124;2024-02-26T01:15:57;118349.16;;;-140.64;100.00
7930;BME280;4010;42.698;23.124;2024-02-26T01:18:26;118349.16;;;-140.64;100.00
7930;BME280;4010;42.698;23.124;2024-02-26T01:20:52;118349.16;;;-140.64;100.00
7930;BME280;4010;42.698;23.124;2024-02-26T01:23:19;118349.16;;;-140.64;100.00
7930;BME280;4010;42.698;23.124;2024-02-26T01:25:46;118349.16;;;-140.64;100.00
7930;BME280;4010;42.698;23.124;2024-02-26T01:28:16;118349.16;;;-140.64;100.00
7930;BME280;4010;42.698;23.124;2024-02-26T01:30:43;118349.16;;;-140.64;100.00
7930;BME280;4010;42.698;23.124;2024-02-26T01:33:10;118349.16;;;-140.64;100.00
7930;BME280;4010;42.698;23.124;2024-02-26T01:35:38;118349.16;;;-140.64;100.00
7930;BME280;4010;42.698;23.124;2024-02-26T01:38:05;118349.16;;;-140.64;100.00
7930;BME280;4010;42.698;23.124;2024-02-26T01:40:32;118349.16;;;-140.64;100.00
7930;BME280;4010;42.698;23.124;2024-02-26T01:42:59;118349.16;;;-140.64;100.00
7930;BME280;4010;42.698;23.124;2024-02-26T01:45:27;118349.16;;;-140.64;100.00
7930;BME280;4010;42.698;23.124;2024-02-26T01:47:55;118349.16;;;-140.64;100.00
7930;BME280;4010;42.698;23.124;2024-02-26T01:50:22;118349.16;;;-140.64;100.00
7930;BME280;4010;42.698;23.124;2024-02-26T01:52:50;118349.16;;;-140.64;100.00
7930;BME280;4010;42.698;23.124;2024-02-26T01:55:18;118349.16;;;-140.64;100.00
7930;BME280;4010;42.698;23.124;2024-02-26T01:57:46;118349.16;;;-140.64;100.00
7930;BME280;4010;42.698;23.124;2024-02-26T02:00:14;118349.16;;;-140.64;100.00
7930;BME280;4010;42.698;23.124;2024-02-26T02:02:44;118349.16;;;-140.64;100.00
7930;BME280;4010;42.698;23.124;2024-02-26T02:05:13;118349.16;;;-140.64;100.00
7930;BME280;4010;42.698;23.124;2024-02-26T02:07:41;118349.16;;;-140.64;100.00
7930;BME280;4010;42.698;23.124;2024-02-26T02:10:08;118349.16;;;-140.64;100.00
7930;BME280;4010;42.698;23.124;2024-02-26T02:12:35;118349.16;;;-140.64;100.00
7930;BME280;4010;42.698;23.124;2024-02-26T02:15:04;118349.16;;;-140.64;100.00
7930;BME280;4010;42.698;23.124;2024-02-26T02:17:31;118349.16;;;-140.64;100.00
7930;BME280;4010;42.698;23.124;2024-02-26T02:19:59;118349.16;;;-140.64;100.00
7930;BME280;4010;42.698;23.124;2024-02-26T02:22:28;118349.16;;;-140.64;100.00
7930;BME280;4010;42.698;23.124;2024-02-26T02:24:54;118349.16;;;-140.64;100.00
7930;BME280;4010;42.698;23.124;2024-02-26T02:27:21;118349.16;;;-140.64;100.00
7930;BME280;4010;42.698;23.124;2024-02-26T02:29:48;118349.16;;;-140.64;100.00
7930;BME280;4010;42.698;23.124;2024-02-26T02:32:16;118349.16;;;-140.64;100.00
7930;BME280;4010;42.698;23.124;2024-02-26T02:34:43;118349.16;;;-140.64;100.00
7930;BME280;4010;42.698;23.124;2024-02-26T02:37:11;118349.16;;;-140.64;100.00
7930;BME280;4010;42.698;23.124;2024-02-26T02:39:39;118349.16;;;-140.64;100.00
7930;BME280;4010;42.698;23.124;2024-02-26T02:42:08;118349.16;;;-140.64;100.00
7930;BME280;4010;42.698;23.124;2024-02-26T02:44:35;118349.16;;;-140.64;100.00
7930;BME280;4010;42.698;23.124;2024-02-26T02:47:02;118349.16;;;-140.64;100.00
7930;BME280;4010;42.698;23.124;2024-02-26T02:49:28;118349.16;;;-140.64;100.00
7930;BME280;4010;42.698;23.124;2024-02-26T02:51:55;118349.16;;;-140.64;100.00
7930;BME280;4010;42.698;23.124;2024-02-26T02:54:23;118349.16;;;-140.64;100.00
7930;BME280;4010;42.698;23.124;2024-02-26T02:56:51;118349.16;;;-140.64;100.00
7930;BME280;4010;42.698;23.124;2024-02-26T02:59:17;118349.16;;;-140.64;100.00
7930;BME280;4010;42.698;23.124;2024-02-26T03:01:44;118349.16;;;-140.64;100.00
7930;BME280;4010;42.698;23.124;2024-02-26T03:04:11;118349.16;;;-140.64;100.00
7930;BME280;4010;42.698;23.124;2024-02-26T03:06:38;118349.16;;;-140.64;100.00
7930;BME280;4010;42.698;23.124;2024-02-26T03:09:04;118349.16;;;-140.64;100.00
7930;BME280;4010;42.698;23.124;2024-02-26T03:11:31;118349.16;;;-140.64;100.00
7930;BME280;4010;42.698;23.124;2024-02-26T03:13:59;118349.16;;;-140.64;100.00
7930;BME280;4010;42.698;23.124;2024-02-26T03:16:26;118349.16;;;-140.64;99.87
7930;BME280;4010;42.698;23.124;2024-02-26T03:18:53;118349.16;;;-140.64;99.51
7930;BME280;4010;42.698;23.124;2024-02-26T03:21:20;118349.16;;;-140.64;99.65
7930;BME280;4010;42.698;23.124;2024-02-26T03:23:46;118349.16;;;-140.64;99.83
7930;BME280;4010;42.698;23.124;2024-02-26T03:26:13;118349.16;;;-140.64;100.00
7930;BME280;4010;42.698;23.124;2024-02-26T03:28:40;118349.16;;;-140.64;100.00
7930;BME280;4010;42.698;23.124;2024-02-26T03:31:08;118349.16;;;-140.64;100.00
7930;BME280;4010;42.698;23.124;2024-02-26T03:33:35;118349.16;;;-140.64;100.00
7930;BME280;4010;42.698;23.124;2024-02-26T03:36:03;118349.16;;;-140.64;100.00
7930;BME280;4010;42.698;23.124;2024-02-26T03:38:30;118349.16;;;-140.64;99.09
7930;BME280;4010;42.698;23.124;2024-02-26T03:40:56;118349.16;;;-140.64;100.00
7930;BME280;4010;42.698;23.124;2024-02-26T03:43:23;118349.16;;;-140.64;100.00
7930;BME280;4010;42.698;23.124;2024-02-26T03:45:50;118349.16;;;-140.64;100.00
7930;BME280;4010;42.698;23.124;2024-02-26T03:48:18;118349.16;;;-140.64;100.00
7930;BME280;4010;42.698;23.124;2024-02-26T03:50:45;118349.16;;;-140.64;100.00
7930;BME280;4010;42.698;23.124;2024-02-26T03:53:11;118349.16;;;-140.64;100.00
7930;BME280;4010;42.698;23.124;2024-02-26T03:55:39;118349.16;;;-140.64;100.00
7930;BME280;4010;42.698;23.124;2024-02-26T03:58:07;118349.16;;;-140.64;99.98
7930;BME280;4010;42.698;23.124;2024-02-26T04:00:33;118349.16;;;-140.64;98.64
7930;BME280;4010;42.698;23.124;2024-02-26T04:03:00;118349.16;;;-140.64;98.64
7930;BME280;4010;42.698;23.124;2024-02-26T04:05:28;118349.16;;;-140.64;99.01
7930;BME280;4010;42.698;23.124;2024-02-26T04:07:55;118349.16;;;-140.64;99.08
7930;BME280;4010;42.698;23.124;2024-02-26T04:10:22;118349.16;;;-140.64;98.34
7930;BME280;4010;42.698;23.124;2024-02-26T04:12:48;118349.16;;;-140.64;98.65
7930;BME280;4010;42.698;23.124;2024-02-26T04:15:15;118349.16;;;-140.64;98.87
7930;BME280;4010;42.698;23.124;2024-02-26T04:17:42;118349.16;;;-140.64;98.69
7930;BME280;4010;42.698;23.124;2024-02-26T04:20:13;118349.16;;;-140.64;98.32
7930;BME280;4010;42.698;23.124;2024-02-26T04:22:42;118349.16;;;-140.64;98.19
7930;BME280;4010;42.698;23.124;2024-02-26T04:25:09;118349.16;;;-140.64;98.87
7930;BME280;4010;42.698;23.124;2024-02-26T04:27:36;118349.16;;;-140.64;99.44
7930;BME280;4010;42.698;23.124;2024-02-26T04:30:04;118349.16;;;-140.64;100.00
7930;BME280;4010;42.698;23.124;2024-02-26T04:32:31;118349.16;;;-140.64;100.00
7930;BME280;4010;42.698;23.124;2024-02-26T04:34:58;118349.16;;;-140.64;100.00
7930;BME280;4010;42.698;23.124;2024-02-26T04:37:25;118349.16;;;-140.64;98.75
7930;BME280;4010;42.698;23.124;2024-02-26T04:39:57;118349.16;;;-140.64;97.54
7930;BME280;4010;42.698;23.124;2024-02-26T04:42:24;118349.16;;;-140.64;98.03
7930;BME280;4010;42.698;23.124;2024-02-26T04:44:51;118349.16;;;-140.64;98.22
7930;BME280;4010;42.698;23.124;2024-02-26T04:47:18;118349.16;;;-140.64;98.95
7930;BME280;4010;42.698;23.124;2024-02-26T04:49:44;118349.16;;;-140.64;99.06
7930;BME280;4010;42.698;23.124;2024-02-26T04:52:11;118349.16;;;-140.64;99.49
7930;BME280;4010;42.698;23.124;2024-02-26T04:54:38;118349.16;;;-140.64;99.74
7930;BME280;4010;42.698;23.124;2024-02-26T04:57:06;118349.16;;;-140.64;100.00
7930;BME280;4010;42.698;23.124;2024-02-26T04:59:33;118349.16;;;-140.64;99.95
7930;BME280;4010;42.698;23.124;2024-02-26T05:02:00;118349.16;;;-140.64;100.00
7930;BME280;4010;42.698;23.124;2024-02-26T05:04:26;118349.16;;;-140.64;100.00
7930;BME280;4010;42.698;23.124;2024-02-26T05:06:53;118349.16;;;-140.64;100.00
7930;BME280;4010;42.698;23.124;2024-02-26T05:09:20;118349.16;;;-140.64;100.00
7930;BME280;4010;42.698;23.124;2024-02-26T05:11:47;118349.16;;;-140.64;100.00
7930;BME280;4010;42.698;23.124;2024-02-26T05:14:15;118349.16;;;-140.64;99.60
7930;BME280;4010;42.698;23.124;2024-02-26T05:16:42;118349.16;;;-140.64;98.81
7930;BME280;4010;42.698;23.124;2024-02-26T05:19:08;118349.16;;;-140.64;98.74
7930;BME280;4010;42.698;23.124;2024-02-26T05:21:35;118349.16;;;-140.64;99.13
7930;BME280;4010;42.698;23.124;2024-02-26T05:24:02;118349.16;;;-140.64;99.94
7930;BME280;4010;42.698;23.124;2024-02-26T05:26:28;118349.16;;;-140.64;99.87
7930;BME280;4010;42.698;23.124;2024-02-26T05:28:55;118349.16;;;-140.64;100.00
7930;BME280;4010;42.698;23.124;2024-02-26T05:31:26;118349.16;;;-140.64;100.00
7930;BME280;4010;42.698;23.124;2024-02-26T05:33:54;118349.16;;;-140.64;100.00
7930;BME280;4010;42.698;23.124;2024-02-26T05:36:21;118349.16;;;-140.64;100.00
7930;BME280;4010;42.698;23.124;2024-02-26T05:38:48;118349.16;;;-140.64;98.93
7930;BME280;4010;42.698;23.124;2024-02-26T05:41:15;118349.16;;;-140.64;99.05
7930;BME280;4010;42.698;23.124;2024-02-26T05:43:45;118349.16;;;-140.64;98.81
7930;BME280;4010;42.698;23.124;2024-02-26T05:46:12;118349.16;;;-140.64;98.77
7930;BME280;4010;42.698;23.124;2024-02-26T05:48:40;118349.16;;;-140.64;98.13
7930;BME280;4010;42.698;23.124;2024-02-26T05:51:07;118349.16;;;-140.64;98.23
7930;BME280;4010;42.698;23.124;2024-02-26T05:53:33;118349.16;;;-140.64;98.79
7930;BME280;4010;42.698;23.124;2024-02-26T05:56:00;118349.16;;;-140.64;99.16
7930;BME280;4010;42.698;23.124;2024-02-26T05:58:27;118349.16;;;-140.64;99.55
7930;BME280;4010;42.698;23.124;2024-02-26T06:00:53;118349.16;;;-140.64;100.00
7930;BME280;4010;42.698;23.124;2024-02-26T06:03:20;118349.16;;;-140.64;100.00
7930;BME280;4010;42.698;23.124;2024-02-26T06:05:48;118349.16;;;-140.64;100.00
7930;BME280;4010;42.698;23.124;2024-02-26T06:08:15;118349.16;;;-140.64;98.75
7930;BME280;4010;42.698;23.124;2024-02-26T06:10:42;118349.16;;;-140.64;97.73
7930;BME280;4010;42.698;23.124;2024-02-26T06:13:09;118349.16;;;-140.64;97.73
7930;BME280;4010;42.698;23.124;2024-02-26T06:15:35;118349.16;;;-140.64;98.04
7930;BME280;4010;42.698;23.124;2024-02-26T06:18:02;118349.16;;;-140.64;98.06
7930;BME280;4010;42.698;23.124;2024-02-26T06:20:29;118349.16;;;-140.64;98.32
7930;BME280;4010;42.698;23.124;2024-02-26T06:22:57;118349.16;;;-140.64;98.75
7930;BME280;4010;42.698;23.124;2024-02-26T06:25:24;118349.16;;;-140.64;99.06
7930;BME280;4010;42.698;23.124;2024-02-26T06:27:51;118349.16;;;-140.64;99.19
7930;BME280;4010;42.698;23.124;2024-02-26T06:30:18;118349.16;;;-140.64;98.77
7930;BME280;4010;42.698;23.124;2024-02-26T06:32:44;118349.16;;;-140.64;98.24
7930;BME280;4010;42.698;23.124;2024-02-26T06:35:11;118349.16;;;-140.64;98.42
7930;BME280;4010;42.698;23.124;2024-02-26T06:37:38;118349.16;;;-140.64;98.35
7930;BME280;4010;42.698;23.124;2024-02-26T06:40:07;118349.16;;;-140.64;98.39
7930;BME280;4010;42.698;23.124;2024-02-26T06:42:34;118349.16;;;-140.64;98.26
7930;BME280;4010;42.698;23.124;2024-02-26T06:45:01;118349.16;;;-140.64;98.50
7930;BME280;4010;42.698;23.124;2024-02-26T06:47:29;118349.16;;;-140.64;97.70
7930;BME280;4010;42.698;23.124;2024-02-26T06:49:56;118349.16;;;-140.64;97.59
7930;BME280;4010;42.698;23.124;2024-02-26T06:52:23;118349.16;;;-140.64;97.36
7930;BME280;4010;42.698;23.124;2024-02-26T06:54:51;118349.16;;;-140.64;96.66
7930;BME280;4010;42.698;23.124;2024-02-26T06:57:19;118349.16;;;-140.64;96.25
7930;BME280;4010;42.698;23.124;2024-02-26T06:59:46;118349.16;;;-140.64;95.99
7930;BME280;4010;42.698;23.124;2024-02-26T07:02:13;118349.16;;;-140.64;96.00
7930;BME280;4010;42.698;23.124;2024-02-26T07:04:41;118349.16;;;-140.64;95.33
7930;BME280;4010;42.698;23.124;2024-02-26T07:07:08;118349.16;;;-140.64;93.59
7930;BME280;4010;42.698;23.124;2024-02-26T07:09:35;118349.16;;;-140.64;92.62
7930;BME280;4010;42.698;23.124;2024-02-26T07:12:03;118349.16;;;-140.64;92.50
7930;BME280;4010;42.698;23.124;2024-02-26T07:14:31;118349.16;;;-140.64;91.75
7930;BME280;4010;42.698;23.124;2024-02-26T07:16:57;118349.16;;;-140.64;92.24
7930;BME280;4010;42.698;23.124;2024-02-26T07:19:24;118349.16;;;-140.64;91.94
7930;BME280;4010;42.698;23.124;2024-02-26T07:21:51;118349.16;;;-140.64;91.60
7930;BME280;4010;42.698;23.124;2024-02-26T07:24:18;118349.16;;;-140.64;91.33
7930;BME280;4010;42.698;23.124;2024-02-26T07:26:44;118349.16;;;-140.64;90.67
7930;BME280;4010;42.698;23.124;2024-02-26T07:29:11;118349.16;;;-140.64;90.85
7930;BME280;4010;42.698;23.124;2024-02-26T07:31:39;118349.16;;;-140.64;90.83
7930;BME280;4010;42.698;23.124;2024-02-26T07:34:06;118349.16;;;-140.64;89.64
7930;BME280;4010;42.698;23.124;2024-02-26T07:36:33;118349.16;;;-140.64;89.78
7930;BME280;4010;42.698;23.124;2024-02-26T07:39:00;118349.16;;;-140.64;90.60
7930;BME280;4010;42.698;23.124;2024-02-26T07:41:27;118349.16;;;-140.64;90.07
7930;BME280;4010;42.698;23.124;2024-02-26T07:43:53;118349.16;;;-140.64;90.30
7930;BME280;4010;42.698;23.124;2024-02-26T07:46:20;118349.16;;;-140.64;90.00
7930;BME280;4010;42.698;23.124;2024-02-26T07:48:48;118349.16;;;-140.64;89.47
7930;BME280;4010;42.698;23.124;2024-02-26T07:51:15;118349.16;;;-140.64;88.48
7930;BME280;4010;42.698;23.124;2024-02-26T07:53:42;118349.16;;;-140.64;88.43
7930;BME280;4010;42.698;23.124;2024-02-26T07:56:09;118349.16;;;-140.64;89.49
7930;BME280;4010;42.698;23.124;2024-02-26T07:58:36;118349.16;;;-140.64;89.86
7930;BME280;4010;42.698;23.124;2024-02-26T08:01:03;118349.16;;;-140.64;88.72
7930;BME280;4010;42.698;23.124;2024-02-26T08:03:29;118349.16;;;-140.64;88.23
7930;BME280;4010;42.698;23.124;2024-02-26T08:05:58;118349.16;;;-140.64;87.27
7930;BME280;4010;42.698;23.124;2024-02-26T08:08:24;118349.16;;;-140.64;86.31
7930;BME280;4010;42.698;23.124;2024-02-26T08:10:51;118349.16;;;-140.64;86.22
7930;BME280;4010;42.698;23.124;2024-02-26T08:13:18;118349.16;;;-140.64;86.52
7930;BME280;4010;42.698;23.124;2024-02-26T08:15:44;118349.16;;;-140.64;85.99
7930;BME280;4010;42.698;23.124;2024-02-26T08:18:11;118349.16;;;-140.64;85.47
7930;BME280;4010;42.698;23.124;2024-02-26T08:20:38;118349.16;;;-140.64;85.26
7930;BME280;4010;42.698;23.124;2024-02-26T08:23:06;118349.16;;;-140.64;84.41
7930;BME280;4010;42.698;23.124;2024-02-26T08:25:33;118349.16;;;-140.64;85.19
7930;BME280;4010;42.698;23.124;2024-02-26T08:27:59;118349.16;;;-140.64;84.78
7930;BME280;4010;42.698;23.124;2024-02-26T08:30:26;118349.16;;;-140.64;84.36
7930;BME280;4010;42.698;23.124;2024-02-26T08:32:53;118349.16;;;-140.64;84.78
7930;BME280;4010;42.698;23.124;2024-02-26T08:35:20;118349.16;;;-140.64;83.95
7930;BME280;4010;42.698;23.124;2024-02-26T08:37:47;118349.16;;;-140.64;83.37
7930;BME280;4010;42.698;23.124;2024-02-26T08:40:15;118349.16;;;-140.64;82.33
7930;BME280;4010;42.698;23.124;2024-02-26T08:42:42;118349.16;;;-140.64;81.76
7930;BME280;4010;42.698;23.124;2024-02-26T08:45:09;118349.16;;;-140.64;82.39
7930;BME280;4010;42.698;23.124;2024-02-26T08:47:36;118349.16;;;-140.64;82.51
7930;BME280;4010;42.698;23.124;2024-02-26T08:50:03;118349.16;;;-140.64;83.12
7930;BME280;4010;42.698;23.124;2024-02-26T08:52:30;118349.16;;;-140.64;82.24
7930;BME280;4010;42.698;23.124;2024-02-26T08:54:57;118349.16;;;-140.64;81.87
7930;BME280;4010;42.698;23.124;2024-02-26T08:57:25;118349.16;;;-140.64;82.04
7930;BME280;4010;42.698;23.124;2024-02-26T08:59:52;118349.16;;;-140.64;81.27
7930;BME280;4010;42.698;23.124;2024-02-26T09:02:19;118349.16;;;-140.64;81.05
7930;BME280;4010;42.698;23.124;2024-02-26T09:04:46;118349.16;;;-140.64;80.90
7930;BME280;4010;42.698;23.124;2024-02-26T09:07:12;118349.16;;;-140.64;80.85
7930;BME280;4010;42.698;23.124;2024-02-26T09:09:39;118349.16;;;-140.64;80.14
7930;BME280;4010;42.698;23.124;2024-02-26T09:12:07;118349.16;;;-140.64;81.41
7930;BME280;4010;42.698;23.124;2024-02-26T09:14:35;118349.16;;;-140.64;81.09
7930;BME280;4010;42.698;23.124;2024-02-26T09:17:02;118349.16;;;-140.64;80.18
7930;BME280;4010;42.698;23.124;2024-02-26T09:19:31;118349.16;;;-140.64;78.78
7930;BME280;4010;42.698;23.124;2024-02-26T09:21:57;118349.16;;;-140.64;79.69
7930;BME280;4010;42.698;23.124;2024-02-26T09:24:25;118349.16;;;-140.64;78.90
7930;BME280;4010;42.698;23.124;2024-02-26T09:26:51;118349.16;;;-140.64;76.91
7930;BME280;4010;42.698;23.124;2024-02-26T09:29:18;118349.16;;;-140.64;77.29
7930;BME280;4010;42.698;23.124;2024-02-26T09:31:46;118349.16;;;-140.64;76.55
7930;BME280;4010;42.698;23.124;2024-02-26T09:34:13;118349.16;;;-140.64;76.24
7930;BME280;4010;42.698;23.124;2024-02-26T09:36:40;118349.16;;;-140.64;77.55
7930;BME280;4010;42.698;23.124;2024-02-26T09:39:07;118349.16;;;-140.64;77.67
7930;BME280;4010;42.698;23.124;2024-02-26T09:41:36;118349.16;;;-140.64;77.05
7930;BME280;4010;42.698;23.124;2024-02-26T09:44:04;118349.16;;;-140.64;77.37
7930;BME280;4010;42.698;23.124;2024-02-26T09:46:31;118349.16;;;-140.64;75.88
7930;BME280;4010;42.698;23.124;2024-02-26T09:48:59;118349.16;;;-140.64;76.09
7930;BME280;4010;42.698;23.124;2024-02-26T09:51:26;118349.16;;;-140.64;75.17
7930;BME280;4010;42.698;23.124;2024-02-26T09:53:54;118349.16;;;-140.64;74.43
7930;BME280;4010;42.698;23.124;2024-02-26T09:56:23;118349.16;;;-140.64;74.01
7930;BME280;4010;42.698;23.124;2024-02-26T09:58:52;118349.16;;;-140.64;74.43
7930;BME280;4010;42.698;23.124;2024-02-26T10:01:20;118349.16;;;-140.64;72.80
7930;BME280;4010;42.698;23.124;2024-02-26T10:03:54;118349.16;;;-140.64;73.71
7930;BME280;4010;42.698;23.124;2024-02-26T10:06:23;118349.16;;;-140.64;74.91
7930;BME280;4010;42.698;23.124;2024-02-26T10:08:51;118349.16;;;-140.64;74.94
7930;BME280;4010;42.698;23.124;2024-02-26T10:11:19;118349.16;;;-140.64;75.01
7930;BME280;4010;42.698;23.124;2024-02-26T10:13:46;118349.16;;;-140.64;75.01
7930;BME280;4010;42.698;23.124;2024-02-26T10:16:13;118349.16;;;-140.64;73.67
7930;BME280;4010;42.698;23.124;2024-02-26T10:18:47;118349.16;;;-140.64;73.47
7930;BME280;4010;42.698;23.124;2024-02-26T10:21:16;118349.16;;;-140.64;73.13
7930;BME280;4010;42.698;23.124;2024-02-26T10:23:45;118349.16;;;-140.64;72.66
7930;BME280;4010;42.698;23.124;2024-02-26T10:26:13;118349.16;;;-140.64;72.13
7930;BME280;4010;42.698;23.124;2024-02-26T10:28:41;118349.16;;;-140.64;71.54
7930;BME280;4010;42.698;23.124;2024-02-26T10:31:09;118349.16;;;-140.64;71.15
7930;BME280;4010;42.698;23.124;2024-02-26T10:33:37;118349.16;;;-140.64;71.02
7930;BME280;4010;42.698;23.124;2024-02-26T10:36:04;118349.16;;;-140.64;69.96
7930;BME280;4010;42.698;23.124;2024-02-26T10:38:32;118349.16;;;-140.64;70.67
7930;BME280;4010;42.698;23.124;2024-02-26T10:41:01;118349.16;;;-140.64;70.18
7930;BME280;4010;42.698;23.124;2024-02-26T10:43:28;118349.16;;;-140.64;69.83
7930;BME280;4010;42.698;23.124;2024-02-26T10:45:55;118349.16;;;-140.64;69.40
7930;BME280;4010;42.698;23.124;2024-02-26T10:48:23;118349.16;;;-140.64;68.54
7930;BME280;4010;42.698;23.124;2024-02-26T10:50:50;118349.16;;;-140.64;69.37
7930;BME280;4010;42.698;23.124;2024-02-26T10:53:20;118349.16;;;-140.64;69.58
7930;BME280;4010;42.698;23.124;2024-02-26T10:55:51;118349.16;;;-140.64;69.49
7930;BME280;4010;42.698;23.124;2024-02-26T10:58:21;118349.16;;;-140.64;68.03
7930;BME280;4010;42.698;23.124;2024-02-26T11:00:50;118349.16;;;-140.64;69.28
7930;BME280;4010;42.698;23.124;2024-02-26T11:03:18;118349.16;;;-140.64;67.92
7930;BME280;4010;42.698;23.124;2024-02-26T11:05:47;118349.16;;;-140.64;65.94
7930;BME280;4010;42.698;23.124;2024-02-26T11:08:15;118349.16;;;-140.64;65.84
7930;BME280;4010;42.698;23.124;2024-02-26T11:10:42;118349.16;;;-140.64;66.11
7930;BME280;4010;42.698;23.124;2024-02-26T11:13:11;118349.16;;;-140.64;64.29
7930;BME280;4010;42.698;23.124;2024-02-26T11:15:40;118349.16;;;-140.64;64.40
7930;BME280;4010;42.698;23.124;2024-02-26T11:18:08;118349.16;;;-140.64;64.60
7930;BME280;4010;42.698;23.124;2024-02-26T11:20:38;118349.16;;;-140.64;64.85
7930;BME280;4010;42.698;23.124;2024-02-26T11:23:06;118349.16;;;-140.64;63.02
7930;BME280;4010;42.698;23.124;2024-02-26T11:25:33;118349.16;;;-140.64;61.11
7930;BME280;4010;42.698;23.124;2024-02-26T11:28:03;118349.16;;;-140.64;62.55
7930;BME280;4010;42.698;23.124;2024-02-26T11:30:33;118349.16;;;-140.64;61.67
7930;BME280;4010;42.698;23.124;2024-02-26T11:33:06;118349.16;;;-140.64;58.45
7930;BME280;4010;42.698;23.124;2024-02-26T11:35:34;118349.16;;;-140.64;55.73
7930;BME280;4010;42.698;23.124;2024-02-26T11:38:03;118349.16;;;-140.64;55.15
7930;BME280;4010;42.698;23.124;2024-02-26T11:40:32;118349.16;;;-140.64;55.25
7930;BME280;4010;42.698;23.124;2024-02-26T11:42:59;118349.16;;;-140.64;54.67
7930;BME280;4010;42.698;23.124;2024-02-26T11:45:48;118349.16;;;-140.64;54.64
7930;BME280;4010;42.698;23.124;2024-02-26T11:48:22;118349.16;;;-140.64;55.48
7930;BME280;4010;42.698;23.124;2024-02-26T11:50:50;118349.16;;;-140.64;55.23
7930;BME280;4010;42.698;23.124;2024-02-26T11:53:26;118349.16;;;-140.64;53.58
7930;BME280;4010;42.698;23.124;2024-02-26T11:56:12;118349.16;;;-140.64;52.69
7930;BME280;4010;42.698;23.124;2024-02-26T11:58:39;118349.16;;;-140.64;51.86
7930;BME280;4010;42.698;23.124;2024-02-26T12:01:06;118349.16;;;-140.64;52.01
7930;BME280;4010;42.698;23.124;2024-02-26T12:03:56;118349.16;;;-140.64;50.93
7930;BME280;4010;42.698;23.124;2024-02-26T12:06:24;118349.16;;;-140.64;51.43
7930;BME280;4010;42.698;23.124;2024-02-26T12:08:52;118349.16;;;-140.64;51.87
7930;BME280;4010;42.698;23.124;2024-02-26T12:11:20;118349.16;;;-140.64;53.89
7930;BME280;4010;42.698;23.124;2024-02-26T12:13:47;118349.16;;;-140.64;49.57
7930;BME280;4010;42.698;23.124;2024-02-26T12:16:34;118349.16;;;-140.64;49.16
7930;BME280;4010;42.698;23.124;2024-02-26T12:19:04;118349.16;;;-140.64;48.94
7930;BME280;4010;42.698;23.124;2024-02-26T12:21:33;118349.16;;;-140.64;49.09
7930;BME280;4010;42.698;23.124;2024-02-26T12:24:09;118349.16;;;-140.64;49.80
7930;BME280;4010;42.698;23.124;2024-02-26T12:26:36;118349.16;;;-140.64;49.53
7930;BME280;4010;42.698;23.124;2024-02-26T12:29:02;118349.16;;;-140.64;47.84
7930;BME280;4010;42.698;23.124;2024-02-26T12:31:29;118349.16;;;-140.64;49.18
7930;BME280;4010;42.698;23.124;2024-02-26T12:33:57;118349.16;;;-140.64;51.43
7930;BME280;4010;42.698;23.124;2024-02-26T12:36:26;118349.16;;;-140.64;51.15
7930;BME280;4010;42.698;23.124;2024-02-26T12:38:53;118349.16;;;-140.64;49.51